sensor_id;sensor_type;location;lat;lon;timestamp;temperature;humidity
40454;DHT22;26160;51.858;4.398;2023-06-22T00:02:24;17.90;99.90
40454;DHT22;26160;51.858;4.398;2023-06-22T00:04:50;17.80;99.90
40454;DHT22;26160;51.858;4.398;2023-06-22T00:07:18;17.80;99.90
40454;DHT22;26160;51.858;4.398;2023-06-22T00:09:44;17.80;99.90
40454;DHT22;26160;51.858;4.398;2023-06-22T00:12:10;17.80;99.90
40454;DHT22;26160;51.858;4.398;2023-06-22T00:14:37;17.70;99.90
40454;DHT22;26160;51.858;4.398;2023-06-22T00:17:03;17.60;99.90
40454;DHT22;26160;51.858;4.398;2023-06-22T00:19:29;17.50;99.90
40454;DHT22;26160;51.858;4.398;2023-06-22T00:21:55;17.50;99.90
40454;DHT22;26160;51.858;4.398;2023-06-22T00:24:22;17.50;99.90
40454;DHT22;26160;51.858;4.398;2023-06-22T00:26:48;17.50;99.90
40454;DHT22;26160;51.858;4.398;2023-06-22T00:29:14;17.40;99.90
40454;DHT22;26160;51.858;4.398;2023-06-22T00:31:41;17.40;99.90
40454;DHT22;26160;51.858;4.398;2023-06-22T00:34:07;17.40;99.90
40454;DHT22;26160;51.858;4.398;2023-06-22T00:36:35;17.40;99.90
40454;DHT22;26160;51.858;4.398;2023-06-22T00:39:01;17.40;99.90
40454;DHT22;26160;51.858;4.398;2023-06-22T00:41:28;17.40;99.90
40454;DHT22;26160;51.858;4.398;2023-06-22T00:43:54;17.40;99.90
40454;DHT22;26160;51.858;4.398;2023-06-22T00:46:22;17.40;99.90
40454;DHT22;26160;51.858;4.398;2023-06-22T00:48:49;17.40;99.90
40454;DHT22;26160;51.858;4.398;2023-06-22T00:51:16;17.30;99.90
40454;DHT22;26160;51.858;4.398;2023-06-22T00:53:42;17.30;99.90
40454;DHT22;26160;51.858;4.398;2023-06-22T00:56:09;17.30;99.90
40454;DHT22;26160;51.858;4.398;2023-06-22T00:58:36;17.30;99.90
40454;DHT22;26160;51.858;4.398;2023-06-22T08:56:24;24.90;1.00
40454;DHT22;26160;51.858;4.398;2023-06-22T15:22:07;20.40;99.90
40454;DHT22;26160;51.858;4.398;2023-06-22T15:53:21;20.30;99.90
40454;DHT22;26160;51.858;4.398;2023-06-22T16:00:33;20.30;99.90
40454;DHT22;26160;51.858;4.398;2023-06-22T16:44:33;19.70;99.90
40454;DHT22;26160;51.858;4.398;2023-06-22T16:55:32;19.80;99.90
40454;DHT22;26160;51.858;4.398;2023-06-22T17:01:43;20.00;99.90
40454;DHT22;26160;51.858;4.398;2023-06-22T17:05:01;20.00;99.90
40454;DHT22;26160;51.858;4.398;2023-06-22T17:07:52;20.10;99.90
40454;DHT22;26160;51.858;4.398;2023-06-22T17:21:20;20.20;99.90
40454;DHT22;26160;51.858;4.398;2023-06-22T17:23:47;20.20;99.90
40454;DHT22;26160;51.858;4.398;2023-06-22T17:26:14;20.10;99.90
40454;DHT22;26160;51.858;4.398;2023-06-22T17:28:52;20.10;99.90
40454;DHT22;26160;51.858;4.398;2023-06-22T17:31:40;20.10;99.90
40454;DHT22;26160;51.858;4.398;2023-06-22T17:34:14;20.20;99.90
40454;DHT22;26160;51.858;4.398;2023-06-22T17:36:49;20.30;99.90
40454;DHT22;26160;51.858;4.398;2023-06-22T17:39:27;20.30;99.90
40454;DHT22;26160;51.858;4.398;2023-06-22T17:41:57;20.30;99.90
40454;DHT22;26160;51.858;4.398;2023-06-22T17:44:44;20.30;99.90
40454;DHT22;26160;51.858;4.398;2023-06-22T17:47:24;20.30;99.90
40454;DHT22;26160;51.858;4.398;2023-06-22T17:50:02;20.30;99.90
40454;DHT22;26160;51.858;4.398;2023-06-22T17:52:30;20.30;99.90
40454;DHT22;26160;51.858;4.398;2023-06-22T17:54:57;20.20;99.90
40454;DHT22;26160;51.858;4.398;2023-06-22T17:57:36;20.20;99.90
40454;DHT22;26160;51.858;4.398;2023-06-22T18:00:06;20.20;99.90
40454;DHT22;26160;51.858;4.398;2023-06-22T18:02:42;20.30;99.90
40454;DHT22;26160;51.858;4.398;2023-06-22T18:05:11;20.20;99.90
40454;DHT22;26160;51.858;4.398;2023-06-22T18:07:39;20.30;99.90
40454;DHT22;26160;51.858;4.398;2023-06-22T18:10:09;20.40;99.90
40454;DHT22;26160;51.858;4.398;2023-06-22T18:12:38;20.40;99.90
40454;DHT22;26160;51.858;4.398;2023-06-22T18:15:07;20.40;99.90
40454;DHT22;26160;51.858;4.398;2023-06-22T18:17:36;20.50;99.90
40454;DHT22;26160;51.858;4.398;2023-06-22T18:20:06;20.50;99.90
40454;DHT22;26160;51.858;4.398;2023-06-22T18:22:36;20.50;99.90
40454;DHT22;26160;51.858;4.398;2023-06-22T18:25:04;20.60;99.90
40454;DHT22;26160;51.858;4.398;2023-06-22T18:27:34;20.70;99.90
40454;DHT22;26160;51.858;4.398;2023-06-22T18:30:02;20.60;99.90
40454;DHT22;26160;51.858;4.398;2023-06-22T18:32:30;20.60;99.90
40454;DHT22;26160;51.858;4.398;2023-06-22T18:34:58;20.60;99.90
40454;DHT22;26160;51.858;4.398;2023-06-22T18:37:32;20.60;99.90
40454;DHT22;26160;51.858;4.398;2023-06-22T18:40:00;20.60;99.90
40454;DHT22;26160;51.858;4.398;2023-06-22T18:42:28;20.50;99.90
40454;DHT22;26160;51.858;4.398;2023-06-22T18:44:55;20.60;99.90
40454;DHT22;26160;51.858;4.398;2023-06-22T18:47:29;20.50;99.90
40454;DHT22;26160;51.858;4.398;2023-06-22T18:50:08;20.50;99.90
40454;DHT22;26160;51.858;4.398;2023-06-22T18:52:35;20.40;99.90
40454;DHT22;26160;51.858;4.398;2023-06-22T18:55:03;20.40;99.90
40454;DHT22;26160;51.858;4.398;2023-06-22T18:57:32;20.40;99.90
40454;DHT22;26160;51.858;4.398;2023-06-22T19:00:17;20.30;99.90
40454;DHT22;26160;51.858;4.398;2023-06-22T19:02:45;20.30;99.90
40454;DHT22;26160;51.858;4.398;2023-06-22T19:05:36;20.20;99.90
40454;DHT22;26160;51.858;4.398;2023-06-22T19:08:04;20.10;99.90
40454;DHT22;26160;51.858;4.398;2023-06-22T19:15:40;19.90;99.90
40454;DHT22;26160;51.858;4.398;2023-06-22T19:18:23;19.80;99.90
40454;DHT22;26160;51.858;4.398;2023-06-22T19:21:00;19.80;99.90
40454;DHT22;26160;51.858;4.398;2023-06-22T19:23:39;19.80;99.90
40454;DHT22;26160;51.858;4.398;2023-06-22T19:26:10;19.70;99.90
40454;DHT22;26160;51.858;4.398;2023-06-22T19:28:55;19.70;99.90
40454;DHT22;26160;51.858;4.398;2023-06-22T19:31:26;19.60;99.90
40454;DHT22;26160;51.858;4.398;2023-06-22T19:34:02;19.60;99.90
40454;DHT22;26160;51.858;4.398;2023-06-22T19:36:33;19.60;99.90
40454;DHT22;26160;51.858;4.398;2023-06-22T19:39:03;19.50;99.90
40454;DHT22;26160;51.858;4.398;2023-06-22T19:41:30;19.50;99.90
40454;DHT22;26160;51.858;4.398;2023-06-22T19:43:56;19.40;99.90
40454;DHT22;26160;51.858;4.398;2023-06-22T19:46:29;19.30;99.90
40454;DHT22;26160;51.858;4.398;2023-06-22T19:48:59;19.30;99.90
40454;DHT22;26160;51.858;4.398;2023-06-22T19:51:38;19.20;99.90
40454;DHT22;26160;51.858;4.398;2023-06-22T19:54:08;19.20;99.90
40454;DHT22;26160;51.858;4.398;2023-06-22T19:56:38;19.20;99.90
40454;DHT22;26160;51.858;4.398;2023-06-22T19:59:14;19.20;99.90
40454;DHT22;26160;51.858;4.398;2023-06-22T20:01:46;19.10;99.90
40454;DHT22;26160;51.858;4.398;2023-06-22T20:04:13;19.10;99.90
40454;DHT22;26160;51.858;4.398;2023-06-22T20:06:39;19.10;99.90
40454;DHT22;26160;51.858;4.398;2023-06-22T20:09:13;19.00;99.90
40454;DHT22;26160;51.858;4.398;2023-06-22T20:11:39;19.00;99.90
40454;DHT22;26160;51.858;4.398;2023-06-22T20:14:06;19.00;99.90
40454;DHT22;26160;51.858;4.398;2023-06-22T20:16:36;19.00;99.90
40454;DHT22;26160;51.858;4.398;2023-06-22T20:19:12;19.00;99.90
40454;DHT22;26160;51.858;4.398;2023-06-22T20:21:41;18.90;99.90
40454;DHT22;26160;51.858;4.398;2023-06-22T20:24:10;18.90;99.90
40454;DHT22;26160;51.858;4.398;2023-06-22T20:29:29;18.80;99.90
40454;DHT22;26160;51.858;4.398;2023-06-22T20:34:35;18.80;99.90
40454;DHT22;26160;51.858;4.398;2023-06-22T20:37:05;18.70;99.90
40454;DHT22;26160;51.858;4.398;2023-06-22T20:39:32;18.70;99.90
40454;DHT22;26160;51.858;4.398;2023-06-22T20:41:59;18.60;99.90
40454;DHT22;26160;51.858;4.398;2023-06-22T20:44:25;18.60;99.90
40454;DHT22;26160;51.858;4.398;2023-06-22T20:46:51;18.60;99.90
40454;DHT22;26160;51.858;4.398;2023-06-22T20:49:17;18.60;99.90
40454;DHT22;26160;51.858;4.398;2023-06-22T20:51:45;18.50;99.90
40454;DHT22;26160;51.858;4.398;2023-06-22T20:54:11;18.50;99.90
40454;DHT22;26160;51.858;4.398;2023-06-22T20:56:40;18.50;99.90
40454;DHT22;26160;51.858;4.398;2023-06-22T20:59:06;18.40;99.90
40454;DHT22;26160;51.858;4.398;2023-06-22T21:01:33;18.40;99.90
40454;DHT22;26160;51.858;4.398;2023-06-22T21:03:59;18.40;99.90
40454;DHT22;26160;51.858;4.398;2023-06-22T21:06:26;18.30;99.90
40454;DHT22;26160;51.858;4.398;2023-06-22T21:08:54;18.30;99.90
40454;DHT22;26160;51.858;4.398;2023-06-22T21:13:59;18.20;99.90
40454;DHT22;26160;51.858;4.398;2023-06-22T21:16:25;18.20;99.90
40454;DHT22;26160;51.858;4.398;2023-06-22T21:18:51;18.20;99.90
40454;DHT22;26160;51.858;4.398;2023-06-22T21:21:18;18.20;99.90
40454;DHT22;26160;51.858;4.398;2023-06-22T21:23:44;18.20;99.90
40454;DHT22;26160;51.858;4.398;2023-06-22T21:26:10;18.10;99.90
40454;DHT22;26160;51.858;4.398;2023-06-22T21:28:37;18.10;99.90
40454;DHT22;26160;51.858;4.398;2023-06-22T21:31:03;18.10;99.90
40454;DHT22;26160;51.858;4.398;2023-06-22T21:33:29;18.00;99.90
40454;DHT22;26160;51.858;4.398;2023-06-22T21:35:55;18.10;99.90
40454;DHT22;26160;51.858;4.398;2023-06-22T21:38:23;18.00;99.90
40454;DHT22;26160;51.858;4.398;2023-06-22T21:40:50;18.00;99.90
40454;DHT22;26160;51.858;4.398;2023-06-22T21:43:16;18.00;99.90
40454;DHT22;26160;51.858;4.398;2023-06-22T21:45:47;18.00;99.90
40454;DHT22;26160;51.858;4.398;2023-06-22T21:48:14;18.00;99.90
40454;DHT22;26160;51.858;4.398;2023-06-22T21:50:40;17.90;99.90
40454;DHT22;26160;51.858;4.398;2023-06-22T21:53:09;17.90;99.90
40454;DHT22;26160;51.858;4.398;2023-06-22T21:55:35;17.90;99.90
40454;DHT22;26160;51.858;4.398;2023-06-22T21:58:04;17.90;99.90
40454;DHT22;26160;51.858;4.398;2023-06-22T22:00:30;17.90;99.90
40454;DHT22;26160;51.858;4.398;2023-06-22T22:03:00;17.80;99.90
40454;DHT22;26160;51.858;4.398;2023-06-22T22:05:26;17.80;99.90
40454;DHT22;26160;51.858;4.398;2023-06-22T22:07:54;17.80;99.90
40454;DHT22;26160;51.858;4.398;2023-06-22T22:10:37;17.70;99.90
40454;DHT22;26160;51.858;4.398;2023-06-22T22:13:02;17.70;99.90
40454;DHT22;26160;51.858;4.398;2023-06-22T22:15:29;17.70;99.90
40454;DHT22;26160;51.858;4.398;2023-06-22T22:17:58;17.70;99.90
40454;DHT22;26160;51.858;4.398;2023-06-22T22:20:33;17.60;99.90
40454;DHT22;26160;51.858;4.398;2023-06-22T22:23:00;17.60;99.90
40454;DHT22;26160;51.858;4.398;2023-06-22T22:25:29;17.60;99.90
40454;DHT22;26160;51.858;4.398;2023-06-22T22:27:56;17.50;99.90
40454;DHT22;26160;51.858;4.398;2023-06-22T22:30:23;17.50;99.90
40454;DHT22;26160;51.858;4.398;2023-06-22T22:32:49;17.50;99.90
40454;DHT22;26160;51.858;4.398;2023-06-22T22:35:15;17.50;99.90
40454;DHT22;26160;51.858;4.398;2023-06-22T22:37:41;17.50;99.90
40454;DHT22;26160;51.858;4.398;2023-06-22T22:40:08;17.40;99.90
40454;DHT22;26160;51.858;4.398;2023-06-22T22:42:39;17.40;99.90
40454;DHT22;26160;51.858;4.398;2023-06-22T22:45:06;17.40;99.90
40454;DHT22;26160;51.858;4.398;2023-06-22T22:47:35;17.40;99.90
40454;DHT22;26160;51.858;4.398;2023-06-22T22:50:02;17.40;99.90
40454;DHT22;26160;51.858;4.398;2023-06-22T22:52:32;17.40;99.90
40454;DHT22;26160;51.858;4.398;2023-06-22T22:55:05;17.40;99.90
40454;DHT22;26160;51.858;4.398;2023-06-22T22:57:33;17.40;99.90
40454;DHT22;26160;51.858;4.398;2023-06-22T22:59:59;17.40;99.90
40454;DHT22;26160;51.858;4.398;2023-06-22T23:02:25;17.40;99.90
40454;DHT22;26160;51.858;4.398;2023-06-22T23:04:57;17.40;99.90
40454;DHT22;26160;51.858;4.398;2023-06-22T23:07:24;17.40;99.90
40454;DHT22;26160;51.858;4.398;2023-06-22T23:09:55;17.40;99.90
40454;DHT22;26160;51.858;4.398;2023-06-22T23:12:21;17.40;99.90
40454;DHT22;26160;51.858;4.398;2023-06-22T23:14:48;17.40;99.90
40454;DHT22;26160;51.858;4.398;2023-06-22T23:17:17;17.40;99.90
40454;DHT22;26160;51.858;4.398;2023-06-22T23:19:49;17.30;99.90
40454;DHT22;26160;51.858;4.398;2023-06-22T23:22:16;17.30;99.90
40454;DHT22;26160;51.858;4.398;2023-06-22T23:24:42;17.30;99.90
40454;DHT22;26160;51.858;4.398;2023-06-22T23:27:09;17.30;99.90
40454;DHT22;26160;51.858;4.398;2023-06-22T23:29:39;17.30;99.90
40454;DHT22;26160;51.858;4.398;2023-06-22T23:32:06;17.30;99.90
40454;DHT22;26160;51.858;4.398;2023-06-22T23:34:38;17.20;99.90
40454;DHT22;26160;51.858;4.398;2023-06-22T23:37:11;17.20;99.90
40454;DHT22;26160;51.858;4.398;2023-06-22T23:39:37;17.20;99.90
40454;DHT22;26160;51.858;4.398;2023-06-22T23:42:04;17.20;99.90
40454;DHT22;26160;51.858;4.398;2023-06-22T23:44:30;17.20;99.90
40454;DHT22;26160;51.858;4.398;2023-06-22T23:46:56;17.20;99.90
40454;DHT22;26160;51.858;4.398;2023-06-22T23:49:24;17.10;99.90
40454;DHT22;26160;51.858;4.398;2023-06-22T23:51:51;17.10;99.90
40454;DHT22;26160;51.858;4.398;2023-06-22T23:54:19;17.10;99.90
40454;DHT22;26160;51.858;4.398;2023-06-22T23:56:50;17.10;99.90
40454;DHT22;26160;51.858;4.398;2023-06-22T23:59:16;17.10;99.90
